sensor_id;sensor_type;location;lat;lon;timestamp;temperature;humidity
49132;DHT22;35149;51.196;6.204;2022-11-10T00:00:57;13.70;67.30
49132;DHT22;35149;51.196;6.204;2022-11-10T00:03:55;13.70;67.30
49132;DHT22;35149;51.196;6.204;2022-11-10T00:06:45;13.70;67.50
49132;DHT22;35149;51.196;6.204;2022-11-10T00:09:31;13.70;67.50
49132;DHT22;35149;51.196;6.204;2022-11-10T00:12:16;13.60;67.40
49132;DHT22;35149;51.196;6.204;2022-11-10T00:15:04;13.60;67.40
49132;DHT22;35149;51.196;6.204;2022-11-10T00:18:08;13.60;67.50
49132;DHT22;35149;51.196;6.204;2022-11-10T00:21:07;13.60;67.50
49132;DHT22;35149;51.196;6.204;2022-11-10T00:23:56;13.60;67.70
49132;DHT22;35149;51.196;6.204;2022-11-10T00:26:41;13.50;67.50
49132;DHT22;35149;51.196;6.204;2022-11-10T00:29:29;13.50;67.60
49132;DHT22;35149;51.196;6.204;2022-11-10T00:32:14;13.50;67.70
49132;DHT22;35149;51.196;6.204;2022-11-10T00:35:05;13.50;67.70
49132;DHT22;35149;51.196;6.204;2022-11-10T00:37:53;13.50;67.80
49132;DHT22;35149;51.196;6.204;2022-11-10T00:40:38;13.40;67.80
49132;DHT22;35149;51.196;6.204;2022-11-10T00:43:24;13.40;67.80
49132;DHT22;35149;51.196;6.204;2022-11-10T00:46:11;13.40;67.90
49132;DHT22;35149;51.196;6.204;2022-11-10T00:49:01;13.40;68.00
49132;DHT22;35149;51.196;6.204;2022-11-10T00:51:46;13.40;68.00
49132;DHT22;35149;51.196;6.204;2022-11-10T00:54:34;13.30;68.00
49132;DHT22;35149;51.196;6.204;2022-11-10T00:57:19;13.30;68.00
49132;DHT22;35149;51.196;6.204;2022-11-10T01:00:05;13.30;68.10
49132;DHT22;35149;51.196;6.204;2022-11-10T01:02:50;13.30;68.20
49132;DHT22;35149;51.196;6.204;2022-11-10T01:05:38;13.30;68.30
49132;DHT22;35149;51.196;6.204;2022-11-10T01:08:26;13.30;68.40
49132;DHT22;35149;51.196;6.204;2022-11-10T01:11:15;13.30;68.40
49132;DHT22;35149;51.196;6.204;2022-11-10T01:14:03;13.30;68.40
49132;DHT22;35149;51.196;6.204;2022-11-10T01:16:48;13.30;68.40
49132;DHT22;35149;51.196;6.204;2022-11-10T01:19:40;13.20;68.30
49132;DHT22;35149;51.196;6.204;2022-11-10T01:22:28;13.20;68.50
49132;DHT22;35149;51.196;6.204;2022-11-10T01:25:29;13.20;68.40
49132;DHT22;35149;51.196;6.204;2022-11-10T01:28:18;13.20;68.60
49132;DHT22;35149;51.196;6.204;2022-11-10T01:31:06;13.20;68.50
49132;DHT22;35149;51.196;6.204;2022-11-10T01:33:51;13.20;68.60
49132;DHT22;35149;51.196;6.204;2022-11-10T01:36:41;13.20;68.60
49132;DHT22;35149;51.196;6.204;2022-11-10T01:39:32;13.10;68.60
49132;DHT22;35149;51.196;6.204;2022-11-10T01:42:24;13.10;68.70
49132;DHT22;35149;51.196;6.204;2022-11-10T01:54:26;13.10;69.00
49132;DHT22;35149;51.196;6.204;2022-11-10T01:57:14;13.10;68.70
49132;DHT22;35149;51.196;6.204;2022-11-10T02:00:03;13.10;68.60
49132;DHT22;35149;51.196;6.204;2022-11-10T02:03:01;13.00;68.80
49132;DHT22;35149;51.196;6.204;2022-11-10T02:05:49;13.00;69.20
49132;DHT22;35149;51.196;6.204;2022-11-10T02:08:37;13.00;68.90
49132;DHT22;35149;51.196;6.204;2022-11-10T02:11:26;12.90;69.00
49132;DHT22;35149;51.196;6.204;2022-11-10T02:14:17;13.00;69.20
49132;DHT22;35149;51.196;6.204;2022-11-10T02:17:04;12.90;69.00
49132;DHT22;35149;51.196;6.204;2022-11-10T02:19:50;12.90;69.00
49132;DHT22;35149;51.196;6.204;2022-11-10T02:22:39;12.90;69.20
49132;DHT22;35149;51.196;6.204;2022-11-10T02:25:27;12.90;69.20
49132;DHT22;35149;51.196;6.204;2022-11-10T02:28:14;12.90;70.00
49132;DHT22;35149;51.196;6.204;2022-11-10T02:30:59;12.80;69.30
49132;DHT22;35149;51.196;6.204;2022-11-10T02:33:44;12.80;69.40
49132;DHT22;35149;51.196;6.204;2022-11-10T02:36:32;12.80;69.50
49132;DHT22;35149;51.196;6.204;2022-11-10T02:39:21;12.80;69.70
49132;DHT22;35149;51.196;6.204;2022-11-10T02:42:06;12.80;69.70
49132;DHT22;35149;51.196;6.204;2022-11-10T02:44:57;12.80;70.40
49132;DHT22;35149;51.196;6.204;2022-11-10T02:47:43;12.70;69.70
49132;DHT22;35149;51.196;6.204;2022-11-10T02:50:28;12.70;69.80
49132;DHT22;35149;51.196;6.204;2022-11-10T02:53:13;12.70;69.90
49132;DHT22;35149;51.196;6.204;2022-11-10T02:55:59;12.70;69.90
49132;DHT22;35149;51.196;6.204;2022-11-10T02:58:44;12.70;70.00
49132;DHT22;35149;51.196;6.204;2022-11-10T03:01:32;12.70;70.00
49132;DHT22;35149;51.196;6.204;2022-11-10T03:04:20;12.70;70.10
49132;DHT22;35149;51.196;6.204;2022-11-10T03:07:07;12.70;70.00
49132;DHT22;35149;51.196;6.204;2022-11-10T03:09:53;12.70;70.10
49132;DHT22;35149;51.196;6.204;2022-11-10T03:12:38;12.70;70.20
49132;DHT22;35149;51.196;6.204;2022-11-10T03:15:26;12.70;70.30
49132;DHT22;35149;51.196;6.204;2022-11-10T03:18:14;12.70;70.40
49132;DHT22;35149;51.196;6.204;2022-11-10T03:20:59;12.70;70.60
49132;DHT22;35149;51.196;6.204;2022-11-10T03:23:45;12.70;70.40
49132;DHT22;35149;51.196;6.204;2022-11-10T03:26:32;12.70;70.40
49132;DHT22;35149;51.196;6.204;2022-11-10T03:29:17;12.70;70.20
49132;DHT22;35149;51.196;6.204;2022-11-10T03:32:09;12.70;70.20
49132;DHT22;35149;51.196;6.204;2022-11-10T03:34:57;12.70;70.20
49132;DHT22;35149;51.196;6.204;2022-11-10T03:37:45;12.70;70.40
49132;DHT22;35149;51.196;6.204;2022-11-10T03:40:31;12.60;70.30
49132;DHT22;35149;51.196;6.204;2022-11-10T03:43:38;12.60;70.30
49132;DHT22;35149;51.196;6.204;2022-11-10T03:46:24;12.60;70.30
49132;DHT22;35149;51.196;6.204;2022-11-10T03:49:09;12.60;70.40
49132;DHT22;35149;51.196;6.204;2022-11-10T03:51:55;12.60;70.50
49132;DHT22;35149;51.196;6.204;2022-11-10T03:54:40;12.60;70.50
49132;DHT22;35149;51.196;6.204;2022-11-10T03:57:25;12.60;70.50
49132;DHT22;35149;51.196;6.204;2022-11-10T04:00:12;12.50;70.50
49132;DHT22;35149;51.196;6.204;2022-11-10T04:02:57;12.60;70.70
49132;DHT22;35149;51.196;6.204;2022-11-10T04:05:46;12.50;70.70
49132;DHT22;35149;51.196;6.204;2022-11-10T04:08:50;12.50;70.80
49132;DHT22;35149;51.196;6.204;2022-11-10T04:11:46;12.50;70.70
49132;DHT22;35149;51.196;6.204;2022-11-10T04:14:50;12.50;70.70
49132;DHT22;35149;51.196;6.204;2022-11-10T04:18:05;12.50;70.70
49132;DHT22;35149;51.196;6.204;2022-11-10T04:21:05;12.50;70.70
49132;DHT22;35149;51.196;6.204;2022-11-10T04:23:52;12.50;70.70
49132;DHT22;35149;51.196;6.204;2022-11-10T04:26:37;12.40;70.80
49132;DHT22;35149;51.196;6.204;2022-11-10T04:29:25;12.50;70.90
49132;DHT22;35149;51.196;6.204;2022-11-10T04:32:10;12.40;70.90
49132;DHT22;35149;51.196;6.204;2022-11-10T04:34:57;12.40;71.00
49132;DHT22;35149;51.196;6.204;2022-11-10T04:37:42;12.40;71.10
49132;DHT22;35149;51.196;6.204;2022-11-10T04:40:29;12.40;71.10
49132;DHT22;35149;51.196;6.204;2022-11-10T04:43:17;12.40;71.20
49132;DHT22;35149;51.196;6.204;2022-11-10T04:46:02;12.40;71.20
49132;DHT22;35149;51.196;6.204;2022-11-10T04:48:48;12.40;71.20
49132;DHT22;35149;51.196;6.204;2022-11-10T04:51:37;12.40;71.30
49132;DHT22;35149;51.196;6.204;2022-11-10T04:54:28;12.40;71.30
49132;DHT22;35149;51.196;6.204;2022-11-10T04:57:16;12.40;71.40
49132;DHT22;35149;51.196;6.204;2022-11-10T05:00:01;12.30;71.40
49132;DHT22;35149;51.196;6.204;2022-11-10T05:02:48;12.30;71.40
49132;DHT22;35149;51.196;6.204;2022-11-10T05:05:34;12.40;71.50
49132;DHT22;35149;51.196;6.204;2022-11-10T05:08:19;12.30;71.50
49132;DHT22;35149;51.196;6.204;2022-11-10T05:11:09;12.40;71.60
49132;DHT22;35149;51.196;6.204;2022-11-10T05:13:57;12.30;71.60
49132;DHT22;35149;51.196;6.204;2022-11-10T05:16:45;12.30;71.70
49132;DHT22;35149;51.196;6.204;2022-11-10T05:19:32;12.30;71.60
49132;DHT22;35149;51.196;6.204;2022-11-10T05:22:18;12.30;71.60
49132;DHT22;35149;51.196;6.204;2022-11-10T05:25:03;12.30;71.60
49132;DHT22;35149;51.196;6.204;2022-11-10T05:27:55;12.30;71.60
49132;DHT22;35149;51.196;6.204;2022-11-10T05:30:40;12.30;71.60
49132;DHT22;35149;51.196;6.204;2022-11-10T05:33:30;12.30;71.70
49132;DHT22;35149;51.196;6.204;2022-11-10T05:36:17;12.30;71.80
49132;DHT22;35149;51.196;6.204;2022-11-10T05:39:03;12.30;71.70
49132;DHT22;35149;51.196;6.204;2022-11-10T05:41:48;12.30;71.80
49132;DHT22;35149;51.196;6.204;2022-11-10T05:44:33;12.20;71.70
49132;DHT22;35149;51.196;6.204;2022-11-10T05:47:21;12.30;71.80
49132;DHT22;35149;51.196;6.204;2022-11-10T05:50:07;12.20;71.90
49132;DHT22;35149;51.196;6.204;2022-11-10T05:52:54;12.20;71.80
49132;DHT22;35149;51.196;6.204;2022-11-10T05:55:40;12.20;71.80
49132;DHT22;35149;51.196;6.204;2022-11-10T05:58:28;12.20;71.90
49132;DHT22;35149;51.196;6.204;2022-11-10T06:01:15;12.20;71.90
49132;DHT22;35149;51.196;6.204;2022-11-10T06:04:01;12.20;72.00
49132;DHT22;35149;51.196;6.204;2022-11-10T06:06:49;12.20;72.00
49132;DHT22;35149;51.196;6.204;2022-11-10T06:09:34;12.20;72.00
49132;DHT22;35149;51.196;6.204;2022-11-10T06:12:22;12.20;72.00
49132;DHT22;35149;51.196;6.204;2022-11-10T06:15:12;12.20;72.00
49132;DHT22;35149;51.196;6.204;2022-11-10T06:18:02;12.20;72.00
49132;DHT22;35149;51.196;6.204;2022-11-10T06:20:48;12.10;72.00
49132;DHT22;35149;51.196;6.204;2022-11-10T06:23:34;12.10;71.90
49132;DHT22;35149;51.196;6.204;2022-11-10T06:26:22;12.10;71.90
49132;DHT22;35149;51.196;6.204;2022-11-10T06:29:08;12.10;71.90
49132;DHT22;35149;51.196;6.204;2022-11-10T06:31:53;12.10;72.00
49132;DHT22;35149;51.196;6.204;2022-11-10T06:34:42;12.10;72.00
49132;DHT22;35149;51.196;6.204;2022-11-10T06:37:31;12.10;72.00
49132;DHT22;35149;51.196;6.204;2022-11-10T06:40:17;12.10;72.00
49132;DHT22;35149;51.196;6.204;2022-11-10T06:43:06;12.00;72.00
49132;DHT22;35149;51.196;6.204;2022-11-10T06:45:51;12.00;72.00
49132;DHT22;35149;51.196;6.204;2022-11-10T06:48:39;12.00;72.10
49132;DHT22;35149;51.196;6.204;2022-11-10T06:51:34;12.00;72.10
49132;DHT22;35149;51.196;6.204;2022-11-10T06:54:22;12.00;72.20
49132;DHT22;35149;51.196;6.204;2022-11-10T06:57:09;12.00;72.20
49132;DHT22;35149;51.196;6.204;2022-11-10T06:59:55;12.00;72.20
49132;DHT22;35149;51.196;6.204;2022-11-10T07:02:40;12.00;72.20
49132;DHT22;35149;51.196;6.204;2022-11-10T07:05:28;12.00;72.20
49132;DHT22;35149;51.196;6.204;2022-11-10T07:08:16;12.00;72.30
49132;DHT22;35149;51.196;6.204;2022-11-10T07:11:01;12.00;72.20
49132;DHT22;35149;51.196;6.204;2022-11-10T07:13:49;12.10;72.30
49132;DHT22;35149;51.196;6.204;2022-11-10T07:16:37;12.00;72.30
49132;DHT22;35149;51.196;6.204;2022-11-10T07:19:28;12.00;72.30
49132;DHT22;35149;51.196;6.204;2022-11-10T07:22:15;12.00;72.30
49132;DHT22;35149;51.196;6.204;2022-11-10T07:25:00;12.00;72.30
49132;DHT22;35149;51.196;6.204;2022-11-10T07:27:50;12.10;72.30
49132;DHT22;35149;51.196;6.204;2022-11-10T07:30:36;12.10;72.30
49132;DHT22;35149;51.196;6.204;2022-11-10T07:33:22;12.10;72.40
49132;DHT22;35149;51.196;6.204;2022-11-10T07:36:08;12.10;72.40
49132;DHT22;35149;51.196;6.204;2022-11-10T07:38:54;12.10;72.40
49132;DHT22;35149;51.196;6.204;2022-11-10T07:41:39;12.10;72.40
49132;DHT22;35149;51.196;6.204;2022-11-10T07:44:24;12.10;72.40
49132;DHT22;35149;51.196;6.204;2022-11-10T07:47:11;12.20;72.40
49132;DHT22;35149;51.196;6.204;2022-11-10T07:49:57;12.20;72.50
49132;DHT22;35149;51.196;6.204;2022-11-10T07:52:42;12.20;72.50
49132;DHT22;35149;51.196;6.204;2022-11-10T07:55:28;12.20;72.50
49132;DHT22;35149;51.196;6.204;2022-11-10T07:58:15;12.20;72.50
49132;DHT22;35149;51.196;6.204;2022-11-10T08:01:01;12.20;72.50
49132;DHT22;35149;51.196;6.204;2022-11-10T08:03:48;12.30;72.60
49132;DHT22;35149;51.196;6.204;2022-11-10T08:06:33;12.30;72.50
49132;DHT22;35149;51.196;6.204;2022-11-10T08:09:30;12.30;72.50
49132;DHT22;35149;51.196;6.204;2022-11-10T08:12:17;12.40;72.80
49132;DHT22;35149;51.196;6.204;2022-11-10T08:15:05;12.40;72.50
49132;DHT22;35149;51.196;6.204;2022-11-10T08:20:51;12.50;72.80
49132;DHT22;35149;51.196;6.204;2022-11-10T08:23:43;12.50;72.60
49132;DHT22;35149;51.196;6.204;2022-11-10T08:26:32;12.50;72.50
49132;DHT22;35149;51.196;6.204;2022-11-10T08:29:19;12.60;72.60
49132;DHT22;35149;51.196;6.204;2022-11-10T08:32:05;12.60;72.50
49132;DHT22;35149;51.196;6.204;2022-11-10T08:34:50;12.70;72.60
49132;DHT22;35149;51.196;6.204;2022-11-10T08:37:36;12.70;72.60
49132;DHT22;35149;51.196;6.204;2022-11-10T08:40:22;12.70;72.50
49132;DHT22;35149;51.196;6.204;2022-11-10T08:43:16;12.80;72.50
49132;DHT22;35149;51.196;6.204;2022-11-10T08:46:01;12.80;72.50
49132;DHT22;35149;51.196;6.204;2022-11-10T08:48:51;12.90;73.00
49132;DHT22;35149;51.196;6.204;2022-11-10T08:51:36;12.90;72.40
49132;DHT22;35149;51.196;6.204;2022-11-10T08:54:24;13.00;72.40
49132;DHT22;35149;51.196;6.204;2022-11-10T08:57:13;13.00;72.30
49132;DHT22;35149;51.196;6.204;2022-11-10T08:59:59;13.10;72.40
49132;DHT22;35149;51.196;6.204;2022-11-10T09:02:46;13.10;72.30
49132;DHT22;35149;51.196;6.204;2022-11-10T09:05:34;13.20;72.30
49132;DHT22;35149;51.196;6.204;2022-11-10T09:08:40;13.20;72.20
49132;DHT22;35149;51.196;6.204;2022-11-10T09:11:25;13.30;72.20
49132;DHT22;35149;51.196;6.204;2022-11-10T09:14:10;13.30;72.10
49132;DHT22;35149;51.196;6.204;2022-11-10T09:16:56;13.40;72.10
49132;DHT22;35149;51.196;6.204;2022-11-10T09:19:41;13.40;72.00
49132;DHT22;35149;51.196;6.204;2022-11-10T09:22:27;13.50;72.00
49132;DHT22;35149;51.196;6.204;2022-11-10T09:25:12;13.60;71.90
49132;DHT22;35149;51.196;6.204;2022-11-10T09:27:57;13.60;71.80
49132;DHT22;35149;51.196;6.204;2022-11-10T09:30:47;13.70;71.70
49132;DHT22;35149;51.196;6.204;2022-11-10T09:33:33;13.80;71.70
49132;DHT22;35149;51.196;6.204;2022-11-10T09:36:18;13.80;71.50
49132;DHT22;35149;51.196;6.204;2022-11-10T09:39:04;13.90;71.30
49132;DHT22;35149;51.196;6.204;2022-11-10T09:41:49;13.90;71.20
49132;DHT22;35149;51.196;6.204;2022-11-10T09:44:38;13.90;71.20
49132;DHT22;35149;51.196;6.204;2022-11-10T09:47:37;14.00;71.20
49132;DHT22;35149;51.196;6.204;2022-11-10T09:50:55;14.10;71.10
49132;DHT22;35149;51.196;6.204;2022-11-10T09:53:47;14.10;70.90
49132;DHT22;35149;51.196;6.204;2022-11-10T09:56:35;14.20;70.80
49132;DHT22;35149;51.196;6.204;2022-11-10T09:59:26;14.30;70.70
49132;DHT22;35149;51.196;6.204;2022-11-10T10:08:54;14.40;70.50
49132;DHT22;35149;51.196;6.204;2022-11-10T10:24:03;14.70;70.00
49132;DHT22;35149;51.196;6.204;2022-11-10T10:27:04;14.70;69.90
49132;DHT22;35149;51.196;6.204;2022-11-10T10:29:50;14.70;69.60
49132;DHT22;35149;51.196;6.204;2022-11-10T10:32:36;14.80;69.60
49132;DHT22;35149;51.196;6.204;2022-11-10T10:35:21;14.80;69.50
49132;DHT22;35149;51.196;6.204;2022-11-10T10:38:20;14.90;69.30
49132;DHT22;35149;51.196;6.204;2022-11-10T10:41:23;15.00;69.30
49132;DHT22;35149;51.196;6.204;2022-11-10T10:44:13;15.00;69.00
49132;DHT22;35149;51.196;6.204;2022-11-10T10:47:00;15.00;69.00
49132;DHT22;35149;51.196;6.204;2022-11-10T10:49:46;15.10;69.00
49132;DHT22;35149;51.196;6.204;2022-11-10T10:52:32;15.10;68.90
49132;DHT22;35149;51.196;6.204;2022-11-10T10:55:17;15.10;68.80
49132;DHT22;35149;51.196;6.204;2022-11-10T11:01:20;15.20;68.60
49132;DHT22;35149;51.196;6.204;2022-11-10T11:04:35;15.30;68.50
49132;DHT22;35149;51.196;6.204;2022-11-10T11:07:23;15.30;68.50
49132;DHT22;35149;51.196;6.204;2022-11-10T11:10:21;15.30;68.50
49132;DHT22;35149;51.196;6.204;2022-11-10T11:13:25;15.40;68.20
49132;DHT22;35149;51.196;6.204;2022-11-10T11:16:10;15.40;68.10
49132;DHT22;35149;51.196;6.204;2022-11-10T11:18:57;15.50;68.00
49132;DHT22;35149;51.196;6.204;2022-11-10T11:22:23;15.50;67.90
49132;DHT22;35149;51.196;6.204;2022-11-10T11:25:31;15.60;67.50
49132;DHT22;35149;51.196;6.204;2022-11-10T11:28:29;15.70;67.40
49132;DHT22;35149;51.196;6.204;2022-11-10T11:34:27;15.80;67.40
49132;DHT22;35149;51.196;6.204;2022-11-10T11:37:20;15.80;67.10
49132;DHT22;35149;51.196;6.204;2022-11-10T11:43:36;15.90;66.70
49132;DHT22;35149;51.196;6.204;2022-11-10T11:46:33;16.00;66.60
49132;DHT22;35149;51.196;6.204;2022-11-10T11:56:09;16.20;66.20
49132;DHT22;35149;51.196;6.204;2022-11-10T12:03:07;16.30;65.40
49132;DHT22;35149;51.196;6.204;2022-11-10T12:09:46;16.40;65.20
49132;DHT22;35149;51.196;6.204;2022-11-10T12:15:45;16.40;64.90
49132;DHT22;35149;51.196;6.204;2022-11-10T12:18:36;16.40;65.20
49132;DHT22;35149;51.196;6.204;2022-11-10T12:21:28;16.50;64.60
49132;DHT22;35149;51.196;6.204;2022-11-10T12:27:43;16.60;63.90
49132;DHT22;35149;51.196;6.204;2022-11-10T12:30:30;16.60;63.80
49132;DHT22;35149;51.196;6.204;2022-11-10T12:33:33;16.70;64.20
49132;DHT22;35149;51.196;6.204;2022-11-10T12:36:21;16.70;63.40
49132;DHT22;35149;51.196;6.204;2022-11-10T12:39:45;16.80;63.70
49132;DHT22;35149;51.196;6.204;2022-11-10T12:42:33;16.80;62.70
49132;DHT22;35149;51.196;6.204;2022-11-10T12:45:26;16.90;63.10
49132;DHT22;35149;51.196;6.204;2022-11-10T12:48:15;16.90;62.50
49132;DHT22;35149;51.196;6.204;2022-11-10T12:51:09;17.00;62.60
49132;DHT22;35149;51.196;6.204;2022-11-10T12:53:57;17.00;62.30
49132;DHT22;35149;51.196;6.204;2022-11-10T12:56:50;17.10;62.20
49132;DHT22;35149;51.196;6.204;2022-11-10T12:59:39;17.10;62.10
49132;DHT22;35149;51.196;6.204;2022-11-10T13:02:41;17.10;62.00
49132;DHT22;35149;51.196;6.204;2022-11-10T13:05:36;17.20;61.40
49132;DHT22;35149;51.196;6.204;2022-11-10T13:13:58;17.20;61.50
49132;DHT22;35149;51.196;6.204;2022-11-10T13:16:47;17.20;61.10
49132;DHT22;35149;51.196;6.204;2022-11-10T13:22:29;17.30;60.80
49132;DHT22;35149;51.196;6.204;2022-11-10T13:46:04;17.50;59.50
49132;DHT22;35149;51.196;6.204;2022-11-10T13:55:06;17.60;59.50
49132;DHT22;35149;51.196;6.204;2022-11-10T13:58:04;17.60;59.10
49132;DHT22;35149;51.196;6.204;2022-11-10T14:04:03;17.80;58.90
49132;DHT22;35149;51.196;6.204;2022-11-10T14:06:51;17.80;59.60
49132;DHT22;35149;51.196;6.204;2022-11-10T14:09:41;17.80;59.30
49132;DHT22;35149;51.196;6.204;2022-11-10T14:12:33;17.90;59.00
49132;DHT22;35149;51.196;6.204;2022-11-10T14:15:22;17.90;58.40
49132;DHT22;35149;51.196;6.204;2022-11-10T14:18:34;17.90;58.50
49132;DHT22;35149;51.196;6.204;2022-11-10T14:21:44;17.90;58.00
49132;DHT22;35149;51.196;6.204;2022-11-10T14:24:35;18.00;58.10
49132;DHT22;35149;51.196;6.204;2022-11-10T14:27:28;17.90;58.20
49132;DHT22;35149;51.196;6.204;2022-11-10T14:30:28;17.90;58.50
49132;DHT22;35149;51.196;6.204;2022-11-10T14:33:14;17.90;57.90
49132;DHT22;35149;51.196;6.204;2022-11-10T14:38:46;17.90;58.60
49132;DHT22;35149;51.196;6.204;2022-11-10T14:41:32;17.90;58.60
49132;DHT22;35149;51.196;6.204;2022-11-10T14:44:25;17.80;58.40
49132;DHT22;35149;51.196;6.204;2022-11-10T14:47:22;17.80;58.00
49132;DHT22;35149;51.196;6.204;2022-11-10T14:50:18;17.80;58.20
49132;DHT22;35149;51.196;6.204;2022-11-10T14:56:03;17.70;58.40
49132;DHT22;35149;51.196;6.204;2022-11-10T14:58:50;17.60;58.40
49132;DHT22;35149;51.196;6.204;2022-11-10T15:01:38;17.60;58.70
49132;DHT22;35149;51.196;6.204;2022-11-10T15:04:28;17.50;58.60
49132;DHT22;35149;51.196;6.204;2022-11-10T15:07:14;17.40;58.70
49132;DHT22;35149;51.196;6.204;2022-11-10T15:10:09;17.40;58.90
49132;DHT22;35149;51.196;6.204;2022-11-10T15:13:03;17.30;58.90
49132;DHT22;35149;51.196;6.204;2022-11-10T15:15:49;17.30;59.00
49132;DHT22;35149;51.196;6.204;2022-11-10T15:18:34;17.20;59.20
49132;DHT22;35149;51.196;6.204;2022-11-10T15:21:29;17.20;59.30
49132;DHT22;35149;51.196;6.204;2022-11-10T15:24:17;17.10;59.00
49132;DHT22;35149;51.196;6.204;2022-11-10T15:27:03;17.10;59.50
49132;DHT22;35149;51.196;6.204;2022-11-10T15:29:49;16.90;59.50
49132;DHT22;35149;51.196;6.204;2022-11-10T15:32:40;16.90;59.50
49132;DHT22;35149;51.196;6.204;2022-11-10T15:35:29;16.80;59.30
49132;DHT22;35149;51.196;6.204;2022-11-10T15:41:11;16.80;59.60
49132;DHT22;35149;51.196;6.204;2022-11-10T15:44:10;16.70;59.40
49132;DHT22;35149;51.196;6.204;2022-11-10T15:46:57;16.60;59.50
49132;DHT22;35149;51.196;6.204;2022-11-10T15:49:43;16.60;59.60
49132;DHT22;35149;51.196;6.204;2022-11-10T15:52:29;16.50;59.70
49132;DHT22;35149;51.196;6.204;2022-11-10T15:55:19;16.50;59.80
49132;DHT22;35149;51.196;6.204;2022-11-10T15:58:18;16.50;59.80
49132;DHT22;35149;51.196;6.204;2022-11-10T16:01:04;16.40;59.90
49132;DHT22;35149;51.196;6.204;2022-11-10T16:03:50;16.30;60.00
49132;DHT22;35149;51.196;6.204;2022-11-10T16:06:37;16.30;60.20
49132;DHT22;35149;51.196;6.204;2022-11-10T16:09:22;16.30;60.40
49132;DHT22;35149;51.196;6.204;2022-11-10T16:12:18;16.10;60.40
49132;DHT22;35149;51.196;6.204;2022-11-10T16:15:12;16.10;60.50
49132;DHT22;35149;51.196;6.204;2022-11-10T16:18:00;16.00;60.70
49132;DHT22;35149;51.196;6.204;2022-11-10T16:20:50;15.90;60.80
49132;DHT22;35149;51.196;6.204;2022-11-10T16:23:36;16.00;61.20
49132;DHT22;35149;51.196;6.204;2022-11-10T16:26:23;15.70;61.20
49132;DHT22;35149;51.196;6.204;2022-11-10T16:29:11;15.70;61.50
49132;DHT22;35149;51.196;6.204;2022-11-10T16:31:57;15.60;61.70
49132;DHT22;35149;51.196;6.204;2022-11-10T16:34:43;15.60;61.90
49132;DHT22;35149;51.196;6.204;2022-11-10T16:37:28;15.50;62.00
49132;DHT22;35149;51.196;6.204;2022-11-10T16:40:21;15.40;62.10
49132;DHT22;35149;51.196;6.204;2022-11-10T16:43:13;15.40;62.30
49132;DHT22;35149;51.196;6.204;2022-11-10T16:46:03;15.30;62.50
49132;DHT22;35149;51.196;6.204;2022-11-10T16:48:54;15.30;62.70
49132;DHT22;35149;51.196;6.204;2022-11-10T16:51:43;15.20;62.80
49132;DHT22;35149;51.196;6.204;2022-11-10T16:54:33;15.20;63.00
49132;DHT22;35149;51.196;6.204;2022-11-10T16:57:21;15.10;63.20
49132;DHT22;35149;51.196;6.204;2022-11-10T17:00:08;15.00;63.30
49132;DHT22;35149;51.196;6.204;2022-11-10T17:03:03;15.00;63.50
49132;DHT22;35149;51.196;6.204;2022-11-10T17:05:51;15.00;63.60
49132;DHT22;35149;51.196;6.204;2022-11-10T17:08:36;15.00;63.60
49132;DHT22;35149;51.196;6.204;2022-11-10T17:11:22;15.00;63.80
49132;DHT22;35149;51.196;6.204;2022-11-10T17:14:09;14.90;63.80
49132;DHT22;35149;51.196;6.204;2022-11-10T17:16:58;14.90;63.90
49132;DHT22;35149;51.196;6.204;2022-11-10T17:19:44;14.90;63.90
49132;DHT22;35149;51.196;6.204;2022-11-10T17:22:39;14.90;63.90
49132;DHT22;35149;51.196;6.204;2022-11-10T17:25:32;14.90;64.00
49132;DHT22;35149;51.196;6.204;2022-11-10T17:28:19;14.90;64.00
49132;DHT22;35149;51.196;6.204;2022-11-10T17:31:07;14.80;63.90
49132;DHT22;35149;51.196;6.204;2022-11-10T17:33:52;14.80;64.00
49132;DHT22;35149;51.196;6.204;2022-11-10T17:36:40;14.80;64.00
49132;DHT22;35149;51.196;6.204;2022-11-10T17:39:29;14.80;64.00
49132;DHT22;35149;51.196;6.204;2022-11-10T17:42:14;14.80;64.00
49132;DHT22;35149;51.196;6.204;2022-11-10T17:45:00;14.80;64.00
49132;DHT22;35149;51.196;6.204;2022-11-10T17:47:48;14.80;64.00
49132;DHT22;35149;51.196;6.204;2022-11-10T17:50:35;14.70;63.90
49132;DHT22;35149;51.196;6.204;2022-11-10T17:53:24;14.70;63.80
49132;DHT22;35149;51.196;6.204;2022-11-10T17:56:12;14.70;63.80
49132;DHT22;35149;51.196;6.204;2022-11-10T17:59:00;14.70;63.80
49132;DHT22;35149;51.196;6.204;2022-11-10T18:01:48;14.70;63.90
49132;DHT22;35149;51.196;6.204;2022-11-10T18:04:37;14.70;63.80
49132;DHT22;35149;51.196;6.204;2022-11-10T18:07:25;14.60;63.90
49132;DHT22;35149;51.196;6.204;2022-11-10T18:10:12;14.60;63.90
49132;DHT22;35149;51.196;6.204;2022-11-10T18:12:57;14.60;64.00
49132;DHT22;35149;51.196;6.204;2022-11-10T18:15:44;14.60;63.90
49132;DHT22;35149;51.196;6.204;2022-11-10T18:18:32;14.50;63.90
49132;DHT22;35149;51.196;6.204;2022-11-10T18:21:30;14.50;63.90
49132;DHT22;35149;51.196;6.204;2022-11-10T18:24:19;14.50;64.00
49132;DHT22;35149;51.196;6.204;2022-11-10T18:27:05;14.50;64.00
49132;DHT22;35149;51.196;6.204;2022-11-10T18:29:53;14.40;64.10
49132;DHT22;35149;51.196;6.204;2022-11-10T18:32:38;14.40;64.10
49132;DHT22;35149;51.196;6.204;2022-11-10T18:35:23;14.40;64.30
49132;DHT22;35149;51.196;6.204;2022-11-10T18:38:10;14.30;64.30
49132;DHT22;35149;51.196;6.204;2022-11-10T18:41:01;14.30;64.30
49132;DHT22;35149;51.196;6.204;2022-11-10T18:44:07;14.30;64.40
49132;DHT22;35149;51.196;6.204;2022-11-10T18:46:55;14.20;64.30
49132;DHT22;35149;51.196;6.204;2022-11-10T18:49:45;14.20;64.50
49132;DHT22;35149;51.196;6.204;2022-11-10T18:52:30;14.10;64.60
49132;DHT22;35149;51.196;6.204;2022-11-10T18:55:18;14.10;64.50
49132;DHT22;35149;51.196;6.204;2022-11-10T18:58:04;14.10;64.60
49132;DHT22;35149;51.196;6.204;2022-11-10T19:00:51;14.00;64.60
49132;DHT22;35149;51.196;6.204;2022-11-10T19:03:39;14.00;64.70
49132;DHT22;35149;51.196;6.204;2022-11-10T19:06:29;14.00;64.70
49132;DHT22;35149;51.196;6.204;2022-11-10T19:09:14;13.90;64.80
49132;DHT22;35149;51.196;6.204;2022-11-10T19:12:03;13.90;64.80
49132;DHT22;35149;51.196;6.204;2022-11-10T19:14:48;13.80;64.90
49132;DHT22;35149;51.196;6.204;2022-11-10T19:17:33;13.80;65.00
49132;DHT22;35149;51.196;6.204;2022-11-10T19:20:19;13.80;65.10
49132;DHT22;35149;51.196;6.204;2022-11-10T19:23:06;13.70;65.20
49132;DHT22;35149;51.196;6.204;2022-11-10T19:29:04;13.70;65.40
49132;DHT22;35149;51.196;6.204;2022-11-10T19:31:52;13.70;65.20
49132;DHT22;35149;51.196;6.204;2022-11-10T19:34:38;13.70;65.20
49132;DHT22;35149;51.196;6.204;2022-11-10T19:37:25;13.60;65.20
49132;DHT22;35149;51.196;6.204;2022-11-10T19:40:19;13.60;65.40